עמוד ראשי
METAR-TAF:

METAR-TAF

שדות תעופה :

ינבוע, ערב הסעודית

קו רוחב: 24-09N, קו אורך: 038-04E, גובה: 8מטר

תצפית מזג אוויר נוכחית

הדו"ח נערך לפני 28דקות, בשעה 19:00 UTC
רוח 10קשר מכיוון מערב
טמפרטורת 32 צלסיוס
לחות 59%
לחץ 1001 hPa
ראות 10 קילומטר או יותר
ללא עננים שבסיסם נמוך מ 5000 רגל או קומולונימבוס

METAR: OEYN 131900Z 27010KT CAVOK 32/23 Q1001 NOSIG

זמן: 22:28 (19:28 UTC)

תחזית

הדו"ח נערך לפני 8 שעות ו 28דקות, בשעה 11:00 UTC
תחזית בתוקף מ 13 ב 12 UTC עד 14 ב 18 UTC
רוח 12קשר מכיוון מערב
ראות 10 קילומטר או יותר
מעט עננים בגובה 4000רגל
הסתברות 30% :
זמנית מ -
13 ב 12 UTC עד 13 ב 18 UTC
מעט עננים בגובה 2500רגל , קומולונימבוס.
עננים פזורים בגובה 4000רגל
יעשה מ
13 ב 20 UTC עד 13 ב 22 UTC
רוח 3קשר עם כיוונים משתנים
ראות 10 קילומטר או יותר
ללא עננים שבסיסם נמוך מ 5000 רגל או קומולונימבוס
יעשה מ
14 ב 06 UTC עד 14 ב 08 UTC
רוח 10קשר מכיוון דרום/דרום-מערב

TAF: OEYN 131100Z 1312/1418 27012KT 9999 FEW040 PROB30 TEMPO 1312/1318 FEW025CB SCT040 BECMG 1320/1322 VRB03KT CAVOK BECMG 1406/1408 20010KT

תצפיות ותחזיות מזג אוויר לגבי יותר מ- 4,000 שדות תעופה ברחבי העולם. דוחות METAR ו- TAF.

התחנות הזמינות מסומנות בנקודות צהובות ואדומות על גבי המפה.

העבר את העכבר לנקודה הצבעונית על מנת לראות את שם התחנה.

לאחר מכן, לחץ כדי לראות את תוכן ואת תחזיות מזג האוויר.

כדי לשנות את המפה: לחץ על הכפתורים הירוקים עם הפלוס השחור כדי להתקרב; על הכפתור הירוק עם המקף כדי להתרחק; או בחיצים הירוקים למפות סמוכות.


METAR-TAF: